sensor_id;sensor_type;location;lat;lon;timestamp;temperature;humidity
36690;DHT22;22676;51.120;3.702;2023-09-19T00:00:43;26.20;52.90
36690;DHT22;22676;51.120;3.702;2023-09-19T00:03:09;26.10;52.70
36690;DHT22;22676;51.120;3.702;2023-09-19T00:05:37;26.00;51.20
36690;DHT22;22676;51.120;3.702;2023-09-19T00:08:09;25.60;51.00
36690;DHT22;22676;51.120;3.702;2023-09-19T00:10:35;25.50;52.30
36690;DHT22;22676;51.120;3.702;2023-09-19T00:13:02;25.60;53.00
36690;DHT22;22676;51.120;3.702;2023-09-19T00:15:45;25.70;53.20
36690;DHT22;22676;51.120;3.702;2023-09-19T00:18:14;25.80;52.80
36690;DHT22;22676;51.120;3.702;2023-09-19T00:20:41;25.80;52.80
36690;DHT22;22676;51.120;3.702;2023-09-19T00:23:07;25.80;52.70
36690;DHT22;22676;51.120;3.702;2023-09-19T00:25:36;25.80;52.80
36690;DHT22;22676;51.120;3.702;2023-09-19T00:28:05;25.80;52.90
36690;DHT22;22676;51.120;3.702;2023-09-19T00:30:33;25.80;52.80
36690;DHT22;22676;51.120;3.702;2023-09-19T00:32:59;25.80;53.00
36690;DHT22;22676;51.120;3.702;2023-09-19T00:35:24;25.80;53.20
36690;DHT22;22676;51.120;3.702;2023-09-19T00:37:51;25.80;53.20
36690;DHT22;22676;51.120;3.702;2023-09-19T00:40:17;25.80;53.40
36690;DHT22;22676;51.120;3.702;2023-09-19T00:42:43;25.70;53.20
36690;DHT22;22676;51.120;3.702;2023-09-19T00:45:10;25.60;53.40
36690;DHT22;22676;51.120;3.702;2023-09-19T00:47:43;25.70;53.10
36690;DHT22;22676;51.120;3.702;2023-09-19T00:50:10;25.60;53.10
36690;DHT22;22676;51.120;3.702;2023-09-19T00:52:40;25.60;53.40
36690;DHT22;22676;51.120;3.702;2023-09-19T00:55:10;25.50;53.50
36690;DHT22;22676;51.120;3.702;2023-09-19T00:57:37;25.50;53.40
36690;DHT22;22676;51.120;3.702;2023-09-19T01:00:04;25.50;53.70
36690;DHT22;22676;51.120;3.702;2023-09-19T01:02:36;25.40;53.90
36690;DHT22;22676;51.120;3.702;2023-09-19T01:05:02;25.30;52.40
36690;DHT22;22676;51.120;3.702;2023-09-19T01:07:31;25.00;52.60
36690;DHT22;22676;51.120;3.702;2023-09-19T01:09:58;24.80;53.40
36690;DHT22;22676;51.120;3.702;2023-09-19T01:15:32;25.00;54.40
36690;DHT22;22676;51.120;3.702;2023-09-19T01:20:50;25.10;54.20
36690;DHT22;22676;51.120;3.702;2023-09-19T01:23:25;25.10;54.30
36690;DHT22;22676;51.120;3.702;2023-09-19T01:31:13;25.20;54.40
36690;DHT22;22676;51.120;3.702;2023-09-19T01:33:59;25.20;54.60
36690;DHT22;22676;51.120;3.702;2023-09-19T01:36:26;25.10;54.50
36690;DHT22;22676;51.120;3.702;2023-09-19T01:38:53;25.10;54.20
36690;DHT22;22676;51.120;3.702;2023-09-19T01:41:29;25.10;54.50
36690;DHT22;22676;51.120;3.702;2023-09-19T01:43:59;25.10;54.30
36690;DHT22;22676;51.120;3.702;2023-09-19T01:46:34;25.10;54.60
36690;DHT22;22676;51.120;3.702;2023-09-19T01:49:41;25.10;54.50
36690;DHT22;22676;51.120;3.702;2023-09-19T01:52:12;25.10;54.30
36690;DHT22;22676;51.120;3.702;2023-09-19T01:54:48;25.00;54.30
36690;DHT22;22676;51.120;3.702;2023-09-19T01:57:30;25.10;54.60
36690;DHT22;22676;51.120;3.702;2023-09-19T02:00:16;25.10;54.60
36690;DHT22;22676;51.120;3.702;2023-09-19T02:02:47;25.10;54.50
36690;DHT22;22676;51.120;3.702;2023-09-19T02:05:21;24.90;53.40
36690;DHT22;22676;51.120;3.702;2023-09-19T02:07:48;24.60;53.60
36690;DHT22;22676;51.120;3.702;2023-09-19T02:10:14;24.50;54.50
36690;DHT22;22676;51.120;3.702;2023-09-19T02:12:40;24.60;55.10
36690;DHT22;22676;51.120;3.702;2023-09-19T02:15:06;24.60;55.00
36690;DHT22;22676;51.120;3.702;2023-09-19T02:17:32;24.70;55.00
36690;DHT22;22676;51.120;3.702;2023-09-19T02:19:58;24.70;55.00
36690;DHT22;22676;51.120;3.702;2023-09-19T02:22:26;24.80;54.90
36690;DHT22;22676;51.120;3.702;2023-09-19T02:24:53;24.80;54.90
36690;DHT22;22676;51.120;3.702;2023-09-19T02:27:19;24.80;54.90
36690;DHT22;22676;51.120;3.702;2023-09-19T02:29:45;24.80;54.90
36690;DHT22;22676;51.120;3.702;2023-09-19T02:32:11;24.80;54.90
36690;DHT22;22676;51.120;3.702;2023-09-19T02:34:36;24.80;54.90
36690;DHT22;22676;51.120;3.702;2023-09-19T02:37:05;24.80;54.70
36690;DHT22;22676;51.120;3.702;2023-09-19T02:39:31;24.80;55.10
36690;DHT22;22676;51.120;3.702;2023-09-19T02:41:57;24.80;55.00
36690;DHT22;22676;51.120;3.702;2023-09-19T02:44:22;24.80;55.00
36690;DHT22;22676;51.120;3.702;2023-09-19T02:46:49;24.80;55.00
36690;DHT22;22676;51.120;3.702;2023-09-19T02:49:15;24.80;55.10
36690;DHT22;22676;51.120;3.702;2023-09-19T02:51:41;24.80;55.20
36690;DHT22;22676;51.120;3.702;2023-09-19T02:54:07;24.80;55.10
36690;DHT22;22676;51.120;3.702;2023-09-19T02:56:33;24.80;55.20
36690;DHT22;22676;51.120;3.702;2023-09-19T02:58:58;24.80;54.90
36690;DHT22;22676;51.120;3.702;2023-09-19T03:01:26;24.80;55.00
36690;DHT22;22676;51.120;3.702;2023-09-19T03:03:52;24.80;54.40
36690;DHT22;22676;51.120;3.702;2023-09-19T03:06:19;24.50;53.80
36690;DHT22;22676;51.120;3.702;2023-09-19T03:08:45;24.30;54.20
36690;DHT22;22676;51.120;3.702;2023-09-19T03:11:12;24.30;55.20
36690;DHT22;22676;51.120;3.702;2023-09-19T03:13:40;24.30;55.40
36690;DHT22;22676;51.120;3.702;2023-09-19T03:16:07;24.40;55.30
36690;DHT22;22676;51.120;3.702;2023-09-19T03:18:36;24.40;55.60
36690;DHT22;22676;51.120;3.702;2023-09-19T03:21:01;24.50;55.20
36690;DHT22;22676;51.120;3.702;2023-09-19T03:23:28;24.60;55.10
36690;DHT22;22676;51.120;3.702;2023-09-19T03:25:54;24.60;55.10
36690;DHT22;22676;51.120;3.702;2023-09-19T03:28:21;24.60;55.30
36690;DHT22;22676;51.120;3.702;2023-09-19T03:30:58;24.60;55.20
36690;DHT22;22676;51.120;3.702;2023-09-19T03:33:25;24.60;55.20
36690;DHT22;22676;51.120;3.702;2023-09-19T03:35:54;24.60;55.20
36690;DHT22;22676;51.120;3.702;2023-09-19T03:38:20;24.70;55.30
36690;DHT22;22676;51.120;3.702;2023-09-19T03:40:47;24.70;55.40
36690;DHT22;22676;51.120;3.702;2023-09-19T03:43:13;24.70;55.20
36690;DHT22;22676;51.120;3.702;2023-09-19T03:45:39;24.70;55.00
36690;DHT22;22676;51.120;3.702;2023-09-19T03:48:12;24.70;55.00
36690;DHT22;22676;51.120;3.702;2023-09-19T03:50:38;24.70;54.90
36690;DHT22;22676;51.120;3.702;2023-09-19T03:53:04;24.70;54.90
36690;DHT22;22676;51.120;3.702;2023-09-19T03:55:30;24.70;55.10
36690;DHT22;22676;51.120;3.702;2023-09-19T03:57:56;24.70;55.00
36690;DHT22;22676;51.120;3.702;2023-09-19T04:00:22;24.70;54.90
36690;DHT22;22676;51.120;3.702;2023-09-19T04:02:51;24.70;55.00
36690;DHT22;22676;51.120;3.702;2023-09-19T04:05:17;24.50;54.20
36690;DHT22;22676;51.120;3.702;2023-09-19T04:07:43;24.20;54.30
36690;DHT22;22676;51.120;3.702;2023-09-19T04:10:09;24.10;55.20
36690;DHT22;22676;51.120;3.702;2023-09-19T04:12:37;24.20;55.60
36690;DHT22;22676;51.120;3.702;2023-09-19T04:15:06;24.30;55.40
36690;DHT22;22676;51.120;3.702;2023-09-19T04:17:33;24.40;55.20
36690;DHT22;22676;51.120;3.702;2023-09-19T04:19:59;24.50;55.00
36690;DHT22;22676;51.120;3.702;2023-09-19T04:22:25;24.50;55.00
36690;DHT22;22676;51.120;3.702;2023-09-19T04:24:51;24.50;54.90
36690;DHT22;22676;51.120;3.702;2023-09-19T04:27:16;24.50;54.90
36690;DHT22;22676;51.120;3.702;2023-09-19T04:29:42;24.60;54.80
36690;DHT22;22676;51.120;3.702;2023-09-19T04:32:08;24.50;54.90
36690;DHT22;22676;51.120;3.702;2023-09-19T04:34:35;24.60;55.00
36690;DHT22;22676;51.120;3.702;2023-09-19T04:37:01;24.50;55.00
36690;DHT22;22676;51.120;3.702;2023-09-19T04:39:27;24.60;54.80
36690;DHT22;22676;51.120;3.702;2023-09-19T04:41:54;24.60;55.20
36690;DHT22;22676;51.120;3.702;2023-09-19T04:44:20;24.60;55.00
36690;DHT22;22676;51.120;3.702;2023-09-19T04:46:48;24.50;55.70
36690;DHT22;22676;51.120;3.702;2023-09-19T04:49:14;24.50;55.00
36690;DHT22;22676;51.120;3.702;2023-09-19T04:51:39;24.50;55.30
36690;DHT22;22676;51.120;3.702;2023-09-19T04:54:06;24.40;55.40
36690;DHT22;22676;51.120;3.702;2023-09-19T04:56:32;24.40;55.60
36690;DHT22;22676;51.120;3.702;2023-09-19T04:58:59;24.40;55.80
36690;DHT22;22676;51.120;3.702;2023-09-19T05:01:25;24.40;56.10
36690;DHT22;22676;51.120;3.702;2023-09-19T05:03:52;24.40;55.90
36690;DHT22;22676;51.120;3.702;2023-09-19T05:06:19;24.20;55.40
36690;DHT22;22676;51.120;3.702;2023-09-19T05:08:46;24.10;55.40
36690;DHT22;22676;51.120;3.702;2023-09-19T05:11:19;24.20;56.30
36690;DHT22;22676;51.120;3.702;2023-09-19T05:13:47;24.20;56.50
36690;DHT22;22676;51.120;3.702;2023-09-19T05:16:12;24.30;56.20
36690;DHT22;22676;51.120;3.702;2023-09-19T05:18:38;24.30;56.10
36690;DHT22;22676;51.120;3.702;2023-09-19T05:21:04;24.30;56.00
36690;DHT22;22676;51.120;3.702;2023-09-19T05:23:30;24.40;56.10
36690;DHT22;22676;51.120;3.702;2023-09-19T05:25:56;24.40;55.90
36690;DHT22;22676;51.120;3.702;2023-09-19T05:28:24;24.40;55.80
36690;DHT22;22676;51.120;3.702;2023-09-19T05:30:49;24.40;55.60
36690;DHT22;22676;51.120;3.702;2023-09-19T05:33:15;24.40;55.70
36690;DHT22;22676;51.120;3.702;2023-09-19T05:35:43;24.40;55.70
36690;DHT22;22676;51.120;3.702;2023-09-19T05:38:11;24.40;55.60
36690;DHT22;22676;51.120;3.702;2023-09-19T05:40:38;24.50;55.60
36690;DHT22;22676;51.120;3.702;2023-09-19T05:43:11;24.50;55.60
36690;DHT22;22676;51.120;3.702;2023-09-19T05:45:37;24.50;55.30
36690;DHT22;22676;51.120;3.702;2023-09-19T05:48:13;24.50;55.10
36690;DHT22;22676;51.120;3.702;2023-09-19T05:50:40;24.60;55.20
36690;DHT22;22676;51.120;3.702;2023-09-19T05:53:05;24.60;55.40
36690;DHT22;22676;51.120;3.702;2023-09-19T05:55:32;24.60;55.30
36690;DHT22;22676;51.120;3.702;2023-09-19T05:57:58;24.70;55.20
36690;DHT22;22676;51.120;3.702;2023-09-19T06:00:25;24.70;55.10
36690;DHT22;22676;51.120;3.702;2023-09-19T06:02:53;24.70;55.00
36690;DHT22;22676;51.120;3.702;2023-09-19T06:05:20;24.70;54.70
36690;DHT22;22676;51.120;3.702;2023-09-19T06:07:46;24.80;54.40
36690;DHT22;22676;51.120;3.702;2023-09-19T06:10:12;24.80;54.20
36690;DHT22;22676;51.120;3.702;2023-09-19T06:12:45;24.80;54.10
36690;DHT22;22676;51.120;3.702;2023-09-19T06:15:12;24.80;54.30
36690;DHT22;22676;51.120;3.702;2023-09-19T06:17:55;24.80;54.40
36690;DHT22;22676;51.120;3.702;2023-09-19T06:20:22;24.80;54.30
36690;DHT22;22676;51.120;3.702;2023-09-19T06:22:49;24.80;54.50
36690;DHT22;22676;51.120;3.702;2023-09-19T06:25:15;24.80;54.50
36690;DHT22;22676;51.120;3.702;2023-09-19T06:27:45;24.80;54.50
36690;DHT22;22676;51.120;3.702;2023-09-19T06:30:11;24.80;54.50
36690;DHT22;22676;51.120;3.702;2023-09-19T06:32:37;24.80;54.50
36690;DHT22;22676;51.120;3.702;2023-09-19T06:35:04;24.80;54.60
36690;DHT22;22676;51.120;3.702;2023-09-19T06:37:32;24.80;54.60
36690;DHT22;22676;51.120;3.702;2023-09-19T06:40:00;24.80;54.40
36690;DHT22;22676;51.120;3.702;2023-09-19T06:42:25;24.80;54.10
36690;DHT22;22676;51.120;3.702;2023-09-19T06:44:51;24.80;54.30
36690;DHT22;22676;51.120;3.702;2023-09-19T06:47:17;24.80;54.20
36690;DHT22;22676;51.120;3.702;2023-09-19T06:49:43;24.70;54.10
36690;DHT22;22676;51.120;3.702;2023-09-19T06:52:11;24.70;54.60
36690;DHT22;22676;51.120;3.702;2023-09-19T06:54:37;24.80;54.00
36690;DHT22;22676;51.120;3.702;2023-09-19T06:57:03;24.80;53.90
36690;DHT22;22676;51.120;3.702;2023-09-19T06:59:29;24.80;53.90
36690;DHT22;22676;51.120;3.702;2023-09-19T07:01:55;24.70;53.80
36690;DHT22;22676;51.120;3.702;2023-09-19T07:04:20;24.70;53.70
36690;DHT22;22676;51.120;3.702;2023-09-19T07:06:49;24.70;53.40
36690;DHT22;22676;51.120;3.702;2023-09-19T07:09:16;24.80;52.30
36690;DHT22;22676;51.120;3.702;2023-09-19T07:11:42;24.80;52.80
36690;DHT22;22676;51.120;3.702;2023-09-19T07:14:08;24.80;53.20
36690;DHT22;22676;51.120;3.702;2023-09-19T07:16:37;24.70;53.20
36690;DHT22;22676;51.120;3.702;2023-09-19T07:19:04;24.70;53.30
36690;DHT22;22676;51.120;3.702;2023-09-19T07:21:30;24.70;53.30
36690;DHT22;22676;51.120;3.702;2023-09-19T07:23:59;24.70;53.10
36690;DHT22;22676;51.120;3.702;2023-09-19T07:26:26;24.80;53.10
36690;DHT22;22676;51.120;3.702;2023-09-19T07:28:53;24.80;52.90
36690;DHT22;22676;51.120;3.702;2023-09-19T07:31:19;24.70;53.00
36690;DHT22;22676;51.120;3.702;2023-09-19T07:33:45;24.70;53.10
36690;DHT22;22676;51.120;3.702;2023-09-19T07:36:11;24.70;53.10
36690;DHT22;22676;51.120;3.702;2023-09-19T07:38:41;24.70;53.20
36690;DHT22;22676;51.120;3.702;2023-09-19T07:41:08;24.70;53.10
36690;DHT22;22676;51.120;3.702;2023-09-19T07:43:37;24.70;53.10
36690;DHT22;22676;51.120;3.702;2023-09-19T07:46:05;24.80;53.30
36690;DHT22;22676;51.120;3.702;2023-09-19T07:48:33;24.70;52.50
36690;DHT22;22676;51.120;3.702;2023-09-19T07:51:06;24.60;51.60
36690;DHT22;22676;51.120;3.702;2023-09-19T07:53:33;24.60;51.60
36690;DHT22;22676;51.120;3.702;2023-09-19T07:56:06;24.50;51.80
36690;DHT22;22676;51.120;3.702;2023-09-19T07:58:33;24.50;51.70
36690;DHT22;22676;51.120;3.702;2023-09-19T08:01:05;24.40;51.50
36690;DHT22;22676;51.120;3.702;2023-09-19T08:03:32;24.40;51.50
36690;DHT22;22676;51.120;3.702;2023-09-19T08:05:58;24.40;51.40
36690;DHT22;22676;51.120;3.702;2023-09-19T08:08:25;24.40;51.40
36690;DHT22;22676;51.120;3.702;2023-09-19T08:10:55;24.30;51.40
36690;DHT22;22676;51.120;3.702;2023-09-19T08:13:22;24.20;51.50
36690;DHT22;22676;51.120;3.702;2023-09-19T08:15:48;24.10;51.60
36690;DHT22;22676;51.120;3.702;2023-09-19T08:18:15;24.10;51.60
36690;DHT22;22676;51.120;3.702;2023-09-19T08:20:41;24.10;51.60
36690;DHT22;22676;51.120;3.702;2023-09-19T08:23:08;24.10;51.70
36690;DHT22;22676;51.120;3.702;2023-09-19T08:25:34;24.00;51.80
36690;DHT22;22676;51.120;3.702;2023-09-19T08:28:00;24.00;51.70
36690;DHT22;22676;51.120;3.702;2023-09-19T08:30:29;24.00;51.90
36690;DHT22;22676;51.120;3.702;2023-09-19T08:32:59;23.90;51.90
36690;DHT22;22676;51.120;3.702;2023-09-19T08:35:25;23.90;52.10
36690;DHT22;22676;51.120;3.702;2023-09-19T08:37:51;23.90;52.20
36690;DHT22;22676;51.120;3.702;2023-09-19T08:40:17;23.90;52.00
36690;DHT22;22676;51.120;3.702;2023-09-19T08:42:53;24.00;51.80
36690;DHT22;22676;51.120;3.702;2023-09-19T08:45:24;24.00;51.90
36690;DHT22;22676;51.120;3.702;2023-09-19T08:50:51;24.00;51.70
36690;DHT22;22676;51.120;3.702;2023-09-19T08:56:10;24.00;51.60
36690;DHT22;22676;51.120;3.702;2023-09-19T08:58:50;23.90;51.50
36690;DHT22;22676;51.120;3.702;2023-09-19T09:01:19;24.00;51.90
36690;DHT22;22676;51.120;3.702;2023-09-19T09:03:53;24.00;51.80
36690;DHT22;22676;51.120;3.702;2023-09-19T09:06:20;24.00;51.70
36690;DHT22;22676;51.120;3.702;2023-09-19T09:08:46;24.00;51.70
36690;DHT22;22676;51.120;3.702;2023-09-19T09:11:13;24.00;51.80
36690;DHT22;22676;51.120;3.702;2023-09-19T09:13:40;24.00;52.10
36690;DHT22;22676;51.120;3.702;2023-09-19T09:16:07;24.10;52.10
36690;DHT22;22676;51.120;3.702;2023-09-19T09:18:34;24.10;52.30
36690;DHT22;22676;51.120;3.702;2023-09-19T09:20:59;24.10;52.20
36690;DHT22;22676;51.120;3.702;2023-09-19T09:23:27;24.10;52.30
36690;DHT22;22676;51.120;3.702;2023-09-19T09:25:55;24.10;52.10
36690;DHT22;22676;51.120;3.702;2023-09-19T09:28:29;24.20;52.30
36690;DHT22;22676;51.120;3.702;2023-09-19T09:30:56;24.20;52.30
36690;DHT22;22676;51.120;3.702;2023-09-19T09:33:24;24.20;52.20
36690;DHT22;22676;51.120;3.702;2023-09-19T09:35:50;24.20;51.10
36690;DHT22;22676;51.120;3.702;2023-09-19T09:38:21;24.10;51.00
36690;DHT22;22676;51.120;3.702;2023-09-19T09:40:51;24.10;51.30
36690;DHT22;22676;51.120;3.702;2023-09-19T09:43:39;24.00;51.40
36690;DHT22;22676;51.120;3.702;2023-09-19T09:46:15;24.00;51.40
36690;DHT22;22676;51.120;3.702;2023-09-19T09:49:04;24.00;51.70
36690;DHT22;22676;51.120;3.702;2023-09-19T09:51:40;24.10;51.60
36690;DHT22;22676;51.120;3.702;2023-09-19T09:54:18;24.10;51.50
36690;DHT22;22676;51.120;3.702;2023-09-19T09:57:19;24.20;51.40
36690;DHT22;22676;51.120;3.702;2023-09-19T09:59:52;24.20;51.00
36690;DHT22;22676;51.120;3.702;2023-09-19T10:02:26;24.30;51.30
36690;DHT22;22676;51.120;3.702;2023-09-19T10:04:55;24.30;51.50
36690;DHT22;22676;51.120;3.702;2023-09-19T10:07:29;24.20;51.30
36690;DHT22;22676;51.120;3.702;2023-09-19T10:09:59;24.20;51.30
36690;DHT22;22676;51.120;3.702;2023-09-19T10:12:32;24.30;51.50
36690;DHT22;22676;51.120;3.702;2023-09-19T10:15:02;24.30;51.40
36690;DHT22;22676;51.120;3.702;2023-09-19T10:17:29;24.40;51.10
36690;DHT22;22676;51.120;3.702;2023-09-19T10:19:57;24.40;51.00
36690;DHT22;22676;51.120;3.702;2023-09-19T10:22:26;24.40;51.00
36690;DHT22;22676;51.120;3.702;2023-09-19T10:24:53;24.40;50.90
36690;DHT22;22676;51.120;3.702;2023-09-19T10:27:20;24.30;51.10
36690;DHT22;22676;51.120;3.702;2023-09-19T10:29:49;24.30;50.90
36690;DHT22;22676;51.120;3.702;2023-09-19T10:32:22;24.20;50.80
36690;DHT22;22676;51.120;3.702;2023-09-19T10:34:49;24.40;50.90
36690;DHT22;22676;51.120;3.702;2023-09-19T10:37:20;24.40;51.00
36690;DHT22;22676;51.120;3.702;2023-09-19T10:39:48;24.50;50.30
36690;DHT22;22676;51.120;3.702;2023-09-19T10:42:18;24.50;50.20
36690;DHT22;22676;51.120;3.702;2023-09-19T10:44:46;24.50;50.20
36690;DHT22;22676;51.120;3.702;2023-09-19T10:47:13;24.50;50.20
36690;DHT22;22676;51.120;3.702;2023-09-19T10:49:46;24.50;49.90
36690;DHT22;22676;51.120;3.702;2023-09-19T10:52:17;24.50;50.10
36690;DHT22;22676;51.120;3.702;2023-09-19T10:54:50;24.50;50.10
36690;DHT22;22676;51.120;3.702;2023-09-19T10:57:24;24.60;49.80
36690;DHT22;22676;51.120;3.702;2023-09-19T11:00:08;24.60;49.70
36690;DHT22;22676;51.120;3.702;2023-09-19T11:05:38;24.50;50.20
36690;DHT22;22676;51.120;3.702;2023-09-19T11:08:09;24.50;50.40
36690;DHT22;22676;51.120;3.702;2023-09-19T11:10:50;24.50;50.50
36690;DHT22;22676;51.120;3.702;2023-09-19T11:13:30;24.50;50.50
36690;DHT22;22676;51.120;3.702;2023-09-19T11:16:04;24.60;50.50
36690;DHT22;22676;51.120;3.702;2023-09-19T11:24:27;24.80;50.50
36690;DHT22;22676;51.120;3.702;2023-09-19T11:27:10;24.80;50.40
36690;DHT22;22676;51.120;3.702;2023-09-19T11:29:37;24.80;50.40
36690;DHT22;22676;51.120;3.702;2023-09-19T11:32:04;24.90;50.50
36690;DHT22;22676;51.120;3.702;2023-09-19T11:40:08;25.00;50.50
36690;DHT22;22676;51.120;3.702;2023-09-19T11:42:47;24.90;50.60
36690;DHT22;22676;51.120;3.702;2023-09-19T11:48:23;24.90;50.70
36690;DHT22;22676;51.120;3.702;2023-09-19T11:50:53;24.90;50.90
36690;DHT22;22676;51.120;3.702;2023-09-19T11:53:23;24.90;50.70
36690;DHT22;22676;51.120;3.702;2023-09-19T11:55:49;25.00;50.90
36690;DHT22;22676;51.120;3.702;2023-09-19T11:58:15;25.00;50.80
36690;DHT22;22676;51.120;3.702;2023-09-19T12:00:43;25.10;50.70
36690;DHT22;22676;51.120;3.702;2023-09-19T12:03:14;25.10;50.70
36690;DHT22;22676;51.120;3.702;2023-09-19T12:05:40;25.10;50.60
36690;DHT22;22676;51.120;3.702;2023-09-19T12:08:07;25.10;50.60
36690;DHT22;22676;51.120;3.702;2023-09-19T12:10:48;25.10;50.60
36690;DHT22;22676;51.120;3.702;2023-09-19T12:13:20;25.20;50.60
36690;DHT22;22676;51.120;3.702;2023-09-19T12:15:46;25.20;50.50
36690;DHT22;22676;51.120;3.702;2023-09-19T12:18:31;25.20;50.50
36690;DHT22;22676;51.120;3.702;2023-09-19T12:20:58;25.20;50.50
36690;DHT22;22676;51.120;3.702;2023-09-19T12:23:24;25.20;50.50
36690;DHT22;22676;51.120;3.702;2023-09-19T12:25:51;25.20;50.70
36690;DHT22;22676;51.120;3.702;2023-09-19T12:28:19;25.20;50.80
36690;DHT22;22676;51.120;3.702;2023-09-19T12:30:48;25.20;50.60
36690;DHT22;22676;51.120;3.702;2023-09-19T12:33:19;25.30;50.60
36690;DHT22;22676;51.120;3.702;2023-09-19T12:35:51;25.20;50.70
36690;DHT22;22676;51.120;3.702;2023-09-19T12:38:28;25.30;50.70
36690;DHT22;22676;51.120;3.702;2023-09-19T12:40:57;25.30;50.70
36690;DHT22;22676;51.120;3.702;2023-09-19T12:43:28;25.30;50.70
36690;DHT22;22676;51.120;3.702;2023-09-19T12:45:58;25.40;50.70
36690;DHT22;22676;51.120;3.702;2023-09-19T12:48:26;25.40;50.60
36690;DHT22;22676;51.120;3.702;2023-09-19T12:51:11;25.40;50.60
36690;DHT22;22676;51.120;3.702;2023-09-19T12:53:42;25.40;50.70
36690;DHT22;22676;51.120;3.702;2023-09-19T12:56:13;25.40;50.70
36690;DHT22;22676;51.120;3.702;2023-09-19T12:58:54;25.40;50.90
36690;DHT22;22676;51.120;3.702;2023-09-19T13:01:21;25.30;51.00
36690;DHT22;22676;51.120;3.702;2023-09-19T13:06:51;25.20;50.60
36690;DHT22;22676;51.120;3.702;2023-09-19T13:09:22;25.20;50.70
36690;DHT22;22676;51.120;3.702;2023-09-19T13:11:50;25.20;50.80
36690;DHT22;22676;51.120;3.702;2023-09-19T13:14:27;25.20;51.00
36690;DHT22;22676;51.120;3.702;2023-09-19T13:17:04;25.20;51.00
36690;DHT22;22676;51.120;3.702;2023-09-19T13:19:51;25.20;51.10
36690;DHT22;22676;51.120;3.702;2023-09-19T13:22:44;25.20;51.20
36690;DHT22;22676;51.120;3.702;2023-09-19T13:25:16;25.20;51.10
36690;DHT22;22676;51.120;3.702;2023-09-19T13:27:45;25.20;51.10
36690;DHT22;22676;51.120;3.702;2023-09-19T13:30:12;25.20;51.20
36690;DHT22;22676;51.120;3.702;2023-09-19T13:32:38;25.20;51.20
36690;DHT22;22676;51.120;3.702;2023-09-19T13:35:06;25.20;51.10
36690;DHT22;22676;51.120;3.702;2023-09-19T13:37:34;25.20;51.20
36690;DHT22;22676;51.120;3.702;2023-09-19T13:40:11;25.20;51.20
36690;DHT22;22676;51.120;3.702;2023-09-19T13:42:37;25.30;51.30
36690;DHT22;22676;51.120;3.702;2023-09-19T13:45:04;25.20;51.10
36690;DHT22;22676;51.120;3.702;2023-09-19T13:47:30;25.30;51.20
36690;DHT22;22676;51.120;3.702;2023-09-19T13:49:56;25.30;51.20
36690;DHT22;22676;51.120;3.702;2023-09-19T13:52:22;25.20;51.10
36690;DHT22;22676;51.120;3.702;2023-09-19T13:54:50;25.30;51.30
36690;DHT22;22676;51.120;3.702;2023-09-19T13:57:16;25.20;51.50
36690;DHT22;22676;51.120;3.702;2023-09-19T13:59:42;25.20;51.50
36690;DHT22;22676;51.120;3.702;2023-09-19T14:02:08;25.20;51.50
36690;DHT22;22676;51.120;3.702;2023-09-19T14:04:33;25.20;51.50
36690;DHT22;22676;51.120;3.702;2023-09-19T14:07:00;25.20;51.00
36690;DHT22;22676;51.120;3.702;2023-09-19T14:09:26;25.20;50.50
36690;DHT22;22676;51.120;3.702;2023-09-19T14:11:52;25.10;51.00
36690;DHT22;22676;51.120;3.702;2023-09-19T14:14:21;25.10;51.30
36690;DHT22;22676;51.120;3.702;2023-09-19T14:16:47;25.10;51.50
36690;DHT22;22676;51.120;3.702;2023-09-19T14:19:13;25.10;51.60
36690;DHT22;22676;51.120;3.702;2023-09-19T14:21:41;25.10;51.60
36690;DHT22;22676;51.120;3.702;2023-09-19T14:24:07;25.10;51.60
36690;DHT22;22676;51.120;3.702;2023-09-19T14:26:35;25.10;52.00
36690;DHT22;22676;51.120;3.702;2023-09-19T14:29:01;25.10;51.60
36690;DHT22;22676;51.120;3.702;2023-09-19T14:31:28;25.10;51.60
36690;DHT22;22676;51.120;3.702;2023-09-19T14:33:54;25.20;51.70
36690;DHT22;22676;51.120;3.702;2023-09-19T14:36:25;25.20;51.60
36690;DHT22;22676;51.120;3.702;2023-09-19T14:38:52;25.20;51.70
36690;DHT22;22676;51.120;3.702;2023-09-19T14:41:25;25.20;51.80
36690;DHT22;22676;51.120;3.702;2023-09-19T14:43:54;25.20;51.90
36690;DHT22;22676;51.120;3.702;2023-09-19T14:46:22;25.20;51.80
36690;DHT22;22676;51.120;3.702;2023-09-19T14:48:51;25.20;51.90
36690;DHT22;22676;51.120;3.702;2023-09-19T14:51:17;25.20;51.90
36690;DHT22;22676;51.120;3.702;2023-09-19T14:53:44;25.20;52.20
36690;DHT22;22676;51.120;3.702;2023-09-19T14:56:10;25.30;52.10
36690;DHT22;22676;51.120;3.702;2023-09-19T14:58:37;25.20;51.80
36690;DHT22;22676;51.120;3.702;2023-09-19T15:01:12;25.10;51.80
36690;DHT22;22676;51.120;3.702;2023-09-19T15:03:39;25.00;52.00
36690;DHT22;22676;51.120;3.702;2023-09-19T15:06:09;25.00;51.60
36690;DHT22;22676;51.120;3.702;2023-09-19T15:08:38;25.10;51.40
36690;DHT22;22676;51.120;3.702;2023-09-19T15:11:07;25.00;51.90
36690;DHT22;22676;51.120;3.702;2023-09-19T15:13:33;25.00;51.70
36690;DHT22;22676;51.120;3.702;2023-09-19T15:16:08;25.00;52.00
36690;DHT22;22676;51.120;3.702;2023-09-19T15:18:41;25.10;51.70
36690;DHT22;22676;51.120;3.702;2023-09-19T15:21:09;25.20;51.60
36690;DHT22;22676;51.120;3.702;2023-09-19T15:23:36;25.10;51.50
36690;DHT22;22676;51.120;3.702;2023-09-19T15:26:11;25.20;51.80
36690;DHT22;22676;51.120;3.702;2023-09-19T15:28:38;25.30;51.60
36690;DHT22;22676;51.120;3.702;2023-09-19T15:31:09;25.40;51.30
36690;DHT22;22676;51.120;3.702;2023-09-19T15:33:35;25.50;51.50
36690;DHT22;22676;51.120;3.702;2023-09-19T15:36:11;25.50;51.30
36690;DHT22;22676;51.120;3.702;2023-09-19T15:41:17;25.60;50.50
36690;DHT22;22676;51.120;3.702;2023-09-19T15:43:43;25.60;50.40
36690;DHT22;22676;51.120;3.702;2023-09-19T15:46:08;25.60;50.10
36690;DHT22;22676;51.120;3.702;2023-09-19T15:48:34;25.60;50.10
36690;DHT22;22676;51.120;3.702;2023-09-19T15:51:03;25.60;50.00
36690;DHT22;22676;51.120;3.702;2023-09-19T15:53:42;25.60;49.90
36690;DHT22;22676;51.120;3.702;2023-09-19T15:56:09;25.60;49.70
36690;DHT22;22676;51.120;3.702;2023-09-19T15:58:35;25.70;49.60
36690;DHT22;22676;51.120;3.702;2023-09-19T16:01:08;25.70;49.80
36690;DHT22;22676;51.120;3.702;2023-09-19T16:03:42;25.70;49.60
36690;DHT22;22676;51.120;3.702;2023-09-19T16:06:16;25.80;50.30
36690;DHT22;22676;51.120;3.702;2023-09-19T16:08:47;25.70;49.80
36690;DHT22;22676;51.120;3.702;2023-09-19T16:11:14;25.70;49.60
36690;DHT22;22676;51.120;3.702;2023-09-19T16:13:41;25.70;49.80
36690;DHT22;22676;51.120;3.702;2023-09-19T16:16:08;25.70;49.90
36690;DHT22;22676;51.120;3.702;2023-09-19T16:18:38;25.60;50.30
36690;DHT22;22676;51.120;3.702;2023-09-19T16:21:05;25.50;50.70